Terminal Aerodrome Forecast
Issued by NWS Blacksburg, VA

Home | Current Version | Previous Version | Text Only | Print | Product List | Glossary On
Versions: 1 2 3 4 5 6 7 8 9 10 11 12 13 14 15 16 17 18 19 20 21 22 23 24 25 26 27 28 29 30 31 32 33 34 35 36 37 38 39 40 41 42 43 44 45 46 47 48 49
000
FTUS41 KRNK 212323
TAFBLF
TAF
KBLF 212323Z 2200/2224 31008G15KT P6SM VCSH SCT012 OVC020
      TEMPO 2200/2204 -SHRA BKN012
     FM220400 31008G15KT P6SM VCSH OVC012
     FM221200 30010G20KT P6SM SCT012 OVC020
     FM222000 30010G20KT P6SM SCT020 OVC040=

USA.gov is the U.S. government's official web portal to all federal, state and local government web resources and services.